sensor_id;sensor_type;location;lat;lon;timestamp;P1;durP1;ratioP1;P2;durP2;ratioP2
6348;SDS011;3207;42.648;23.406;2022-08-07T00:01:01;4.13;;;1.98;;
6348;SDS011;3207;42.648;23.406;2022-08-07T00:03:27;2.50;;;2.30;;
6348;SDS011;3207;42.648;23.406;2022-08-07T00:05:54;1.85;;;1.75;;
6348;SDS011;3207;42.648;23.406;2022-08-07T00:08:20;2.25;;;2.05;;
6348;SDS011;3207;42.648;23.406;2022-08-07T00:10:49;1.90;;;1.80;;
6348;SDS011;3207;42.648;23.406;2022-08-07T00:13:15;2.30;;;2.10;;
6348;SDS011;3207;42.648;23.406;2022-08-07T00:15:43;2.00;;;1.85;;
6348;SDS011;3207;42.648;23.406;2022-08-07T00:18:10;2.25;;;2.00;;
6348;SDS011;3207;42.648;23.406;2022-08-07T00:20:37;2.38;;;1.80;;
6348;SDS011;3207;42.648;23.406;2022-08-07T00:23:04;3.10;;;2.00;;
6348;SDS011;3207;42.648;23.406;2022-08-07T00:25:31;2.42;;;1.77;;
6348;SDS011;3207;42.648;23.406;2022-08-07T00:27:59;2.85;;;2.15;;
6348;SDS011;3207;42.648;23.406;2022-08-07T00:30:26;2.20;;;2.00;;
6348;SDS011;3207;42.648;23.406;2022-08-07T00:32:52;2.60;;;1.90;;
6348;SDS011;3207;42.648;23.406;2022-08-07T00:35:20;2.17;;;1.98;;
6348;SDS011;3207;42.648;23.406;2022-08-07T00:37:46;3.45;;;1.80;;
6348;SDS011;3207;42.648;23.406;2022-08-07T00:40:13;2.28;;;2.08;;
6348;SDS011;3207;42.648;23.406;2022-08-07T00:42:40;3.28;;;1.75;;
6348;SDS011;3207;42.648;23.406;2022-08-07T00:45:09;3.00;;;2.00;;
6348;SDS011;3207;42.648;23.406;2022-08-07T00:47:36;2.97;;;2.05;;
6348;SDS011;3207;42.648;23.406;2022-08-07T00:50:04;2.25;;;2.03;;
6348;SDS011;3207;42.648;23.406;2022-08-07T00:52:32;1.73;;;1.63;;
6348;SDS011;3207;42.648;23.406;2022-08-07T00:54:59;2.40;;;2.08;;
6348;SDS011;3207;42.648;23.406;2022-08-07T00:57:25;2.42;;;2.22;;
6348;SDS011;3207;42.648;23.406;2022-08-07T00:59:52;2.20;;;2.00;;
6348;SDS011;3207;42.648;23.406;2022-08-07T01:02:20;1.90;;;1.80;;
6348;SDS011;3207;42.648;23.406;2022-08-07T01:04:48;1.90;;;1.77;;
6348;SDS011;3207;42.648;23.406;2022-08-07T01:07:15;2.30;;;2.10;;
6348;SDS011;3207;42.648;23.406;2022-08-07T01:09:42;3.60;;;2.10;;
6348;SDS011;3207;42.648;23.406;2022-08-07T01:12:08;2.50;;;2.03;;
6348;SDS011;3207;42.648;23.406;2022-08-07T01:14:35;4.03;;;1.77;;
6348;SDS011;3207;42.648;23.406;2022-08-07T01:17:02;3.35;;;2.10;;
6348;SDS011;3207;42.648;23.406;2022-08-07T01:19:30;3.10;;;1.98;;
6348;SDS011;3207;42.648;23.406;2022-08-07T01:22:00;2.17;;;2.05;;
6348;SDS011;3207;42.648;23.406;2022-08-07T01:24:28;2.17;;;2.00;;
6348;SDS011;3207;42.648;23.406;2022-08-07T01:26:55;2.22;;;2.13;;
6348;SDS011;3207;42.648;23.406;2022-08-07T01:29:22;2.50;;;2.30;;
6348;SDS011;3207;42.648;23.406;2022-08-07T01:31:50;2.55;;;1.70;;
6348;SDS011;3207;42.648;23.406;2022-08-07T01:34:17;2.00;;;1.90;;
6348;SDS011;3207;42.648;23.406;2022-08-07T01:36:44;2.88;;;2.13;;
6348;SDS011;3207;42.648;23.406;2022-08-07T01:39:13;4.75;;;1.95;;
6348;SDS011;3207;42.648;23.406;2022-08-07T01:41:40;5.13;;;2.42;;
6348;SDS011;3207;42.648;23.406;2022-08-07T01:44:08;1.90;;;1.75;;
6348;SDS011;3207;42.648;23.406;2022-08-07T01:46:35;4.47;;;2.33;;
6348;SDS011;3207;42.648;23.406;2022-08-07T01:49:02;2.40;;;1.90;;
6348;SDS011;3207;42.648;23.406;2022-08-07T01:51:29;2.85;;;1.77;;
6348;SDS011;3207;42.648;23.406;2022-08-07T01:53:57;3.10;;;2.10;;
6348;SDS011;3207;42.648;23.406;2022-08-07T01:56:30;2.28;;;2.08;;
6348;SDS011;3207;42.648;23.406;2022-08-07T01:59:04;1.65;;;1.55;;
6348;SDS011;3207;42.648;23.406;2022-08-07T02:01:34;2.58;;;2.10;;
6348;SDS011;3207;42.648;23.406;2022-08-07T02:04:07;2.50;;;2.30;;
6348;SDS011;3207;42.648;23.406;2022-08-07T02:06:37;2.15;;;1.98;;
6348;SDS011;3207;42.648;23.406;2022-08-07T02:09:06;2.25;;;2.05;;
6348;SDS011;3207;42.648;23.406;2022-08-07T02:11:39;2.05;;;1.90;;
6348;SDS011;3207;42.648;23.406;2022-08-07T02:14:09;2.33;;;2.13;;
6348;SDS011;3207;42.648;23.406;2022-08-07T02:16:37;2.17;;;2.05;;
6348;SDS011;3207;42.648;23.406;2022-08-07T02:19:05;2.25;;;2.10;;
6348;SDS011;3207;42.648;23.406;2022-08-07T02:21:35;3.63;;;2.45;;
6348;SDS011;3207;42.648;23.406;2022-08-07T02:24:04;2.10;;;2.00;;
6348;SDS011;3207;42.648;23.406;2022-08-07T02:26:31;4.60;;;2.25;;
6348;SDS011;3207;42.648;23.406;2022-08-07T02:29:02;2.33;;;2.10;;
6348;SDS011;3207;42.648;23.406;2022-08-07T02:31:31;2.30;;;2.15;;
6348;SDS011;3207;42.648;23.406;2022-08-07T02:34:01;2.30;;;2.20;;
6348;SDS011;3207;42.648;23.406;2022-08-07T02:36:29;2.80;;;2.53;;
6348;SDS011;3207;42.648;23.406;2022-08-07T02:38:57;2.67;;;2.47;;
6348;SDS011;3207;42.648;23.406;2022-08-07T02:41:26;2.22;;;2.03;;
6348;SDS011;3207;42.648;23.406;2022-08-07T02:43:54;3.88;;;2.35;;
6348;SDS011;3207;42.648;23.406;2022-08-07T02:46:25;2.40;;;2.20;;
6348;SDS011;3207;42.648;23.406;2022-08-07T02:48:55;2.28;;;2.17;;
6348;SDS011;3207;42.648;23.406;2022-08-07T02:51:22;2.22;;;2.03;;
6348;SDS011;3207;42.648;23.406;2022-08-07T02:53:51;4.20;;;2.53;;
6348;SDS011;3207;42.648;23.406;2022-08-07T02:56:21;2.47;;;2.28;;
6348;SDS011;3207;42.648;23.406;2022-08-07T02:58:51;2.38;;;2.17;;
6348;SDS011;3207;42.648;23.406;2022-08-07T03:01:19;7.85;;;2.42;;
6348;SDS011;3207;42.648;23.406;2022-08-07T03:03:50;3.00;;;2.72;;
6348;SDS011;3207;42.648;23.406;2022-08-07T03:06:18;3.35;;;2.45;;
6348;SDS011;3207;42.648;23.406;2022-08-07T03:08:46;5.05;;;2.58;;
6348;SDS011;3207;42.648;23.406;2022-08-07T03:11:13;3.33;;;2.95;;
6348;SDS011;3207;42.648;23.406;2022-08-07T03:13:40;2.60;;;2.40;;
6348;SDS011;3207;42.648;23.406;2022-08-07T03:16:08;2.08;;;1.88;;
6348;SDS011;3207;42.648;23.406;2022-08-07T03:18:35;3.10;;;2.55;;
6348;SDS011;3207;42.648;23.406;2022-08-07T03:21:04;6.00;;;2.47;;
6348;SDS011;3207;42.648;23.406;2022-08-07T03:23:31;2.88;;;2.13;;
6348;SDS011;3207;42.648;23.406;2022-08-07T03:26:00;2.42;;;2.13;;
6348;SDS011;3207;42.648;23.406;2022-08-07T03:28:28;2.42;;;2.22;;
6348;SDS011;3207;42.648;23.406;2022-08-07T03:30:55;2.75;;;2.55;;
6348;SDS011;3207;42.648;23.406;2022-08-07T03:33:37;3.20;;;2.40;;
6348;SDS011;3207;42.648;23.406;2022-08-07T03:36:07;3.10;;;2.45;;
6348;SDS011;3207;42.648;23.406;2022-08-07T03:38:34;2.40;;;2.20;;
6348;SDS011;3207;42.648;23.406;2022-08-07T03:41:02;2.95;;;2.13;;
6348;SDS011;3207;42.648;23.406;2022-08-07T03:43:29;2.35;;;2.15;;
6348;SDS011;3207;42.648;23.406;2022-08-07T03:45:57;2.50;;;2.15;;
6348;SDS011;3207;42.648;23.406;2022-08-07T03:48:24;1.83;;;1.70;;
6348;SDS011;3207;42.648;23.406;2022-08-07T03:50:53;2.47;;;2.03;;
6348;SDS011;3207;42.648;23.406;2022-08-07T03:53:23;2.60;;;2.05;;
6348;SDS011;3207;42.648;23.406;2022-08-07T03:55:49;2.15;;;1.95;;
6348;SDS011;3207;42.648;23.406;2022-08-07T03:58:19;2.22;;;2.03;;
6348;SDS011;3207;42.648;23.406;2022-08-07T04:00:47;4.13;;;2.40;;
6348;SDS011;3207;42.648;23.406;2022-08-07T04:03:15;1.98;;;1.85;;
6348;SDS011;3207;42.648;23.406;2022-08-07T04:05:42;2.40;;;2.20;;
6348;SDS011;3207;42.648;23.406;2022-08-07T04:08:09;3.13;;;2.28;;
6348;SDS011;3207;42.648;23.406;2022-08-07T04:10:38;3.72;;;1.98;;
6348;SDS011;3207;42.648;23.406;2022-08-07T04:13:05;2.33;;;2.13;;
6348;SDS011;3207;42.648;23.406;2022-08-07T04:15:32;4.32;;;2.35;;
6348;SDS011;3207;42.648;23.406;2022-08-07T04:17:59;2.67;;;2.10;;
6348;SDS011;3207;42.648;23.406;2022-08-07T04:20:27;3.75;;;2.47;;
6348;SDS011;3207;42.648;23.406;2022-08-07T04:22:53;2.92;;;2.50;;
6348;SDS011;3207;42.648;23.406;2022-08-07T04:25:21;2.92;;;2.40;;
6348;SDS011;3207;42.648;23.406;2022-08-07T04:27:50;3.03;;;2.28;;
6348;SDS011;3207;42.648;23.406;2022-08-07T04:30:17;4.10;;;2.50;;
6348;SDS011;3207;42.648;23.406;2022-08-07T04:32:43;2.50;;;2.30;;
6348;SDS011;3207;42.648;23.406;2022-08-07T04:35:10;3.22;;;2.17;;
6348;SDS011;3207;42.648;23.406;2022-08-07T04:37:38;1.77;;;1.67;;
6348;SDS011;3207;42.648;23.406;2022-08-07T04:40:05;2.25;;;2.03;;
6348;SDS011;3207;42.648;23.406;2022-08-07T04:42:32;2.47;;;2.28;;
6348;SDS011;3207;42.648;23.406;2022-08-07T04:45:01;3.03;;;1.88;;
6348;SDS011;3207;42.648;23.406;2022-08-07T04:47:31;6.15;;;2.03;;
6348;SDS011;3207;42.648;23.406;2022-08-07T04:50:07;3.70;;;2.25;;
6348;SDS011;3207;42.648;23.406;2022-08-07T04:52:38;3.42;;;2.20;;
6348;SDS011;3207;42.648;23.406;2022-08-07T04:55:11;3.35;;;2.58;;
6348;SDS011;3207;42.648;23.406;2022-08-07T04:57:46;2.95;;;2.20;;
6348;SDS011;3207;42.648;23.406;2022-08-07T05:00:20;2.85;;;2.35;;
6348;SDS011;3207;42.648;23.406;2022-08-07T05:03:00;4.85;;;2.95;;
6348;SDS011;3207;42.648;23.406;2022-08-07T05:05:34;5.18;;;3.28;;
6348;SDS011;3207;42.648;23.406;2022-08-07T05:08:09;6.25;;;4.50;;
6348;SDS011;3207;42.648;23.406;2022-08-07T05:10:44;7.00;;;5.57;;
6348;SDS011;3207;42.648;23.406;2022-08-07T05:13:15;3.85;;;3.17;;
6348;SDS011;3207;42.648;23.406;2022-08-07T05:15:47;4.78;;;2.50;;
6348;SDS011;3207;42.648;23.406;2022-08-07T05:18:18;4.50;;;2.60;;
6348;SDS011;3207;42.648;23.406;2022-08-07T05:20:48;5.10;;;4.25;;
6348;SDS011;3207;42.648;23.406;2022-08-07T05:23:20;5.53;;;2.70;;
6348;SDS011;3207;42.648;23.406;2022-08-07T05:25:48;3.03;;;2.40;;
6348;SDS011;3207;42.648;23.406;2022-08-07T05:28:17;3.22;;;2.92;;
6348;SDS011;3207;42.648;23.406;2022-08-07T05:30:47;3.55;;;3.25;;
6348;SDS011;3207;42.648;23.406;2022-08-07T05:33:14;4.50;;;2.20;;
6348;SDS011;3207;42.648;23.406;2022-08-07T05:35:42;3.88;;;2.60;;
6348;SDS011;3207;42.648;23.406;2022-08-07T05:38:09;2.33;;;2.13;;
6348;SDS011;3207;42.648;23.406;2022-08-07T05:40:37;3.15;;;2.85;;
6348;SDS011;3207;42.648;23.406;2022-08-07T05:43:04;2.95;;;2.53;;
6348;SDS011;3207;42.648;23.406;2022-08-07T05:45:31;2.90;;;2.30;;
6348;SDS011;3207;42.648;23.406;2022-08-07T05:47:59;5.50;;;2.50;;
6348;SDS011;3207;42.648;23.406;2022-08-07T05:50:29;2.97;;;2.67;;
6348;SDS011;3207;42.648;23.406;2022-08-07T05:52:56;2.85;;;2.55;;
6348;SDS011;3207;42.648;23.406;2022-08-07T05:55:22;5.40;;;2.80;;
6348;SDS011;3207;42.648;23.406;2022-08-07T05:57:49;4.18;;;2.00;;
6348;SDS011;3207;42.648;23.406;2022-08-07T06:00:17;6.45;;;1.95;;
6348;SDS011;3207;42.648;23.406;2022-08-07T06:02:47;2.53;;;2.33;;
6348;SDS011;3207;42.648;23.406;2022-08-07T06:05:16;4.68;;;2.50;;
6348;SDS011;3207;42.648;23.406;2022-08-07T06:07:46;2.67;;;2.47;;
6348;SDS011;3207;42.648;23.406;2022-08-07T06:10:13;4.00;;;2.92;;
6348;SDS011;3207;42.648;23.406;2022-08-07T06:12:40;5.63;;;3.75;;
6348;SDS011;3207;42.648;23.406;2022-08-07T06:15:07;8.50;;;7.47;;
6348;SDS011;3207;42.648;23.406;2022-08-07T06:17:36;5.22;;;2.72;;
6348;SDS011;3207;42.648;23.406;2022-08-07T06:20:04;2.80;;;2.60;;
6348;SDS011;3207;42.648;23.406;2022-08-07T06:22:34;3.42;;;3.05;;
6348;SDS011;3207;42.648;23.406;2022-08-07T06:25:03;3.47;;;3.13;;
6348;SDS011;3207;42.648;23.406;2022-08-07T06:27:31;2.47;;;2.28;;
6348;SDS011;3207;42.648;23.406;2022-08-07T06:29:58;2.60;;;2.40;;
6348;SDS011;3207;42.648;23.406;2022-08-07T06:32:26;3.40;;;2.22;;
6348;SDS011;3207;42.648;23.406;2022-08-07T06:34:52;2.53;;;2.33;;
6348;SDS011;3207;42.648;23.406;2022-08-07T06:37:19;2.17;;;1.98;;
6348;SDS011;3207;42.648;23.406;2022-08-07T06:39:47;3.78;;;2.20;;
6348;SDS011;3207;42.648;23.406;2022-08-07T06:42:15;1.92;;;1.83;;
6348;SDS011;3207;42.648;23.406;2022-08-07T06:44:44;3.13;;;2.40;;
6348;SDS011;3207;42.648;23.406;2022-08-07T06:47:12;2.65;;;2.30;;
6348;SDS011;3207;42.648;23.406;2022-08-07T06:49:39;4.45;;;2.10;;
6348;SDS011;3207;42.648;23.406;2022-08-07T06:52:06;3.42;;;2.50;;
6348;SDS011;3207;42.648;23.406;2022-08-07T06:54:35;2.88;;;2.60;;
6348;SDS011;3207;42.648;23.406;2022-08-07T06:57:04;5.28;;;2.30;;
6348;SDS011;3207;42.648;23.406;2022-08-07T06:59:34;8.45;;;2.55;;
6348;SDS011;3207;42.648;23.406;2022-08-07T07:02:05;2.40;;;2.20;;
6348;SDS011;3207;42.648;23.406;2022-08-07T07:04:33;2.35;;;1.83;;
6348;SDS011;3207;42.648;23.406;2022-08-07T07:07:00;3.67;;;2.53;;
6348;SDS011;3207;42.648;23.406;2022-08-07T07:09:31;3.10;;;2.20;;
6348;SDS011;3207;42.648;23.406;2022-08-07T07:12:16;2.50;;;2.30;;
6348;SDS011;3207;42.648;23.406;2022-08-07T07:15:06;2.50;;;2.17;;
6348;SDS011;3207;42.648;23.406;2022-08-07T07:17:39;2.33;;;2.13;;
6348;SDS011;3207;42.648;23.406;2022-08-07T07:20:12;5.72;;;2.60;;
6348;SDS011;3207;42.648;23.406;2022-08-07T07:22:43;3.47;;;3.00;;
6348;SDS011;3207;42.648;23.406;2022-08-07T07:25:10;3.35;;;2.95;;
6348;SDS011;3207;42.648;23.406;2022-08-07T07:27:41;3.90;;;2.80;;
6348;SDS011;3207;42.648;23.406;2022-08-07T07:30:13;4.93;;;2.30;;
6348;SDS011;3207;42.648;23.406;2022-08-07T07:32:40;2.63;;;2.42;;
6348;SDS011;3207;42.648;23.406;2022-08-07T07:35:08;2.47;;;2.28;;
6348;SDS011;3207;42.648;23.406;2022-08-07T07:37:37;2.83;;;2.63;;
6348;SDS011;3207;42.648;23.406;2022-08-07T07:40:07;2.45;;;1.92;;
6348;SDS011;3207;42.648;23.406;2022-08-07T07:42:40;6.72;;;2.55;;
6348;SDS011;3207;42.648;23.406;2022-08-07T07:45:09;3.67;;;3.22;;
6348;SDS011;3207;42.648;23.406;2022-08-07T07:47:38;2.17;;;2.08;;
6348;SDS011;3207;42.648;23.406;2022-08-07T07:50:08;3.17;;;2.42;;
6348;SDS011;3207;42.648;23.406;2022-08-07T07:52:36;3.22;;;2.65;;
6348;SDS011;3207;42.648;23.406;2022-08-07T07:55:05;4.10;;;2.90;;
6348;SDS011;3207;42.648;23.406;2022-08-07T07:57:32;4.63;;;3.38;;
6348;SDS011;3207;42.648;23.406;2022-08-07T08:00:03;4.80;;;2.95;;
6348;SDS011;3207;42.648;23.406;2022-08-07T08:02:31;3.35;;;2.90;;
6348;SDS011;3207;42.648;23.406;2022-08-07T08:04:59;3.33;;;3.03;;
6348;SDS011;3207;42.648;23.406;2022-08-07T08:07:28;2.90;;;2.70;;
6348;SDS011;3207;42.648;23.406;2022-08-07T08:09:56;2.38;;;2.17;;
6348;SDS011;3207;42.648;23.406;2022-08-07T08:12:25;3.03;;;2.78;;
6348;SDS011;3207;42.648;23.406;2022-08-07T08:14:52;4.60;;;3.40;;
6348;SDS011;3207;42.648;23.406;2022-08-07T08:17:20;3.38;;;2.78;;
6348;SDS011;3207;42.648;23.406;2022-08-07T08:19:48;4.70;;;2.60;;
6348;SDS011;3207;42.648;23.406;2022-08-07T08:22:18;3.05;;;2.85;;
6348;SDS011;3207;42.648;23.406;2022-08-07T08:25:03;2.58;;;2.38;;
6348;SDS011;3207;42.648;23.406;2022-08-07T08:27:50;2.72;;;2.42;;
6348;SDS011;3207;42.648;23.406;2022-08-07T08:30:19;3.15;;;2.95;;
6348;SDS011;3207;42.648;23.406;2022-08-07T08:32:48;4.95;;;4.53;;
6348;SDS011;3207;42.648;23.406;2022-08-07T08:35:19;3.25;;;2.97;;
6348;SDS011;3207;42.648;23.406;2022-08-07T08:37:48;5.93;;;3.10;;
6348;SDS011;3207;42.648;23.406;2022-08-07T08:40:22;3.25;;;3.03;;
6348;SDS011;3207;42.648;23.406;2022-08-07T08:42:53;4.72;;;3.20;;
6348;SDS011;3207;42.648;23.406;2022-08-07T08:45:27;4.43;;;2.85;;
6348;SDS011;3207;42.648;23.406;2022-08-07T08:48:12;2.78;;;2.53;;
6348;SDS011;3207;42.648;23.406;2022-08-07T08:50:47;3.00;;;2.70;;
6348;SDS011;3207;42.648;23.406;2022-08-07T08:53:21;3.08;;;2.60;;
6348;SDS011;3207;42.648;23.406;2022-08-07T08:55:56;4.57;;;3.92;;
6348;SDS011;3207;42.648;23.406;2022-08-07T08:58:28;4.47;;;3.30;;
6348;SDS011;3207;42.648;23.406;2022-08-07T09:01:02;3.08;;;2.83;;
6348;SDS011;3207;42.648;23.406;2022-08-07T09:03:41;2.80;;;2.60;;
6348;SDS011;3207;42.648;23.406;2022-08-07T09:06:17;4.35;;;3.17;;
6348;SDS011;3207;42.648;23.406;2022-08-07T09:08:53;3.05;;;2.67;;
6348;SDS011;3207;42.648;23.406;2022-08-07T09:11:27;3.35;;;3.05;;
6348;SDS011;3207;42.648;23.406;2022-08-07T09:14:01;4.05;;;3.65;;
6348;SDS011;3207;42.648;23.406;2022-08-07T09:16:53;4.00;;;3.33;;
6348;SDS011;3207;42.648;23.406;2022-08-07T09:22:28;3.67;;;3.38;;
6348;SDS011;3207;42.648;23.406;2022-08-07T09:25:08;3.20;;;2.85;;
6348;SDS011;3207;42.648;23.406;2022-08-07T09:27:41;3.22;;;2.92;;
6348;SDS011;3207;42.648;23.406;2022-08-07T09:30:11;4.10;;;3.70;;
6348;SDS011;3207;42.648;23.406;2022-08-07T09:32:55;7.13;;;6.45;;
6348;SDS011;3207;42.648;23.406;2022-08-07T09:35:34;9.32;;;8.27;;
6348;SDS011;3207;42.648;23.406;2022-08-07T09:38:10;4.00;;;3.58;;
6348;SDS011;3207;42.648;23.406;2022-08-07T09:40:50;3.33;;;3.03;;
6348;SDS011;3207;42.648;23.406;2022-08-07T09:43:27;3.65;;;2.95;;
6348;SDS011;3207;42.648;23.406;2022-08-07T09:46:03;3.42;;;3.22;;
6348;SDS011;3207;42.648;23.406;2022-08-07T09:48:41;3.50;;;3.20;;
6348;SDS011;3207;42.648;23.406;2022-08-07T09:51:18;3.35;;;3.05;;
6348;SDS011;3207;42.648;23.406;2022-08-07T09:53:56;3.70;;;3.40;;
6348;SDS011;3207;42.648;23.406;2022-08-07T09:56:33;4.53;;;3.45;;
6348;SDS011;3207;42.648;23.406;2022-08-07T09:59:21;9.43;;;8.32;;
6348;SDS011;3207;42.648;23.406;2022-08-07T10:02:02;10.48;;;9.57;;
6348;SDS011;3207;42.648;23.406;2022-08-07T10:04:49;7.65;;;6.85;;
6348;SDS011;3207;42.648;23.406;2022-08-07T10:07:32;4.20;;;3.90;;
6348;SDS011;3207;42.648;23.406;2022-08-07T10:10:18;4.75;;;3.83;;
6348;SDS011;3207;42.648;23.406;2022-08-07T10:12:58;4.18;;;3.67;;
6348;SDS011;3207;42.648;23.406;2022-08-07T10:15:45;3.72;;;3.47;;
6348;SDS011;3207;42.648;23.406;2022-08-07T10:18:23;3.55;;;3.25;;
6348;SDS011;3207;42.648;23.406;2022-08-07T10:21:15;3.60;;;3.30;;
6348;SDS011;3207;42.648;23.406;2022-08-07T10:23:55;3.85;;;3.55;;
6348;SDS011;3207;42.648;23.406;2022-08-07T10:26:32;4.00;;;3.40;;
6348;SDS011;3207;42.648;23.406;2022-08-07T10:29:14;3.70;;;3.40;;
6348;SDS011;3207;42.648;23.406;2022-08-07T10:31:52;3.95;;;3.63;;
6348;SDS011;3207;42.648;23.406;2022-08-07T10:34:39;4.30;;;3.88;;
6348;SDS011;3207;42.648;23.406;2022-08-07T10:37:18;4.28;;;3.92;;
6348;SDS011;3207;42.648;23.406;2022-08-07T10:40:00;7.70;;;7.03;;
6348;SDS011;3207;42.648;23.406;2022-08-07T10:42:35;8.52;;;7.82;;
6348;SDS011;3207;42.648;23.406;2022-08-07T10:45:08;4.72;;;4.40;;
6348;SDS011;3207;42.648;23.406;2022-08-07T10:47:44;4.05;;;3.75;;
6348;SDS011;3207;42.648;23.406;2022-08-07T10:50:18;5.75;;;3.97;;
6348;SDS011;3207;42.648;23.406;2022-08-07T10:52:53;4.18;;;3.90;;
6348;SDS011;3207;42.648;23.406;2022-08-07T10:55:28;4.28;;;3.35;;
6348;SDS011;3207;42.648;23.406;2022-08-07T10:58:04;4.00;;;3.70;;
6348;SDS011;3207;42.648;23.406;2022-08-07T11:00:44;4.03;;;3.63;;
6348;SDS011;3207;42.648;23.406;2022-08-07T11:03:19;3.92;;;3.63;;
6348;SDS011;3207;42.648;23.406;2022-08-07T11:05:57;3.80;;;3.50;;
6348;SDS011;3207;42.648;23.406;2022-08-07T11:08:34;3.90;;;3.60;;
6348;SDS011;3207;42.648;23.406;2022-08-07T11:11:08;4.15;;;3.83;;
6348;SDS011;3207;42.648;23.406;2022-08-07T11:13:40;5.22;;;3.63;;
6348;SDS011;3207;42.648;23.406;2022-08-07T11:16:14;3.72;;;3.50;;
6348;SDS011;3207;42.648;23.406;2022-08-07T11:18:45;4.00;;;3.70;;
6348;SDS011;3207;42.648;23.406;2022-08-07T11:21:18;10.43;;;3.50;;
6348;SDS011;3207;42.648;23.406;2022-08-07T11:23:56;4.45;;;4.10;;
6348;SDS011;3207;42.648;23.406;2022-08-07T11:26:30;3.95;;;3.65;;
6348;SDS011;3207;42.648;23.406;2022-08-07T11:29:05;5.28;;;4.30;;
6348;SDS011;3207;42.648;23.406;2022-08-07T11:31:36;4.25;;;3.45;;
6348;SDS011;3207;42.648;23.406;2022-08-07T11:34:10;4.22;;;3.63;;
6348;SDS011;3207;42.648;23.406;2022-08-07T11:36:46;4.03;;;3.72;;
6348;SDS011;3207;42.648;23.406;2022-08-07T11:42:22;4.53;;;4.13;;
6348;SDS011;3207;42.648;23.406;2022-08-07T11:44:59;4.10;;;3.80;;
6348;SDS011;3207;42.648;23.406;2022-08-07T11:47:40;5.90;;;4.53;;
6348;SDS011;3207;42.648;23.406;2022-08-07T11:50:31;5.82;;;4.70;;
6348;SDS011;3207;42.648;23.406;2022-08-07T11:53:09;4.85;;;4.43;;
6348;SDS011;3207;42.648;23.406;2022-08-07T11:55:51;4.60;;;4.30;;
6348;SDS011;3207;42.648;23.406;2022-08-07T11:58:43;4.28;;;3.95;;
6348;SDS011;3207;42.648;23.406;2022-08-07T12:01:24;4.72;;;4.32;;
6348;SDS011;3207;42.648;23.406;2022-08-07T12:04:08;4.97;;;4.03;;
6348;SDS011;3207;42.648;23.406;2022-08-07T12:06:49;4.25;;;3.95;;
6348;SDS011;3207;42.648;23.406;2022-08-07T12:09:21;4.45;;;4.07;;
6348;SDS011;3207;42.648;23.406;2022-08-07T12:11:55;3.47;;;3.28;;
6348;SDS011;3207;42.648;23.406;2022-08-07T12:14:31;3.75;;;3.55;;
6348;SDS011;3207;42.648;23.406;2022-08-07T12:17:10;4.30;;;3.85;;
6348;SDS011;3207;42.648;23.406;2022-08-07T12:19:42;4.40;;;4.10;;
6348;SDS011;3207;42.648;23.406;2022-08-07T12:22:16;4.80;;;4.28;;
6348;SDS011;3207;42.648;23.406;2022-08-07T12:24:50;4.38;;;4.07;;
6348;SDS011;3207;42.648;23.406;2022-08-07T12:27:43;4.75;;;4.43;;
6348;SDS011;3207;42.648;23.406;2022-08-07T12:30:15;6.30;;;5.70;;
6348;SDS011;3207;42.648;23.406;2022-08-07T12:32:45;5.78;;;5.25;;
6348;SDS011;3207;42.648;23.406;2022-08-07T12:35:18;11.13;;;10.23;;
6348;SDS011;3207;42.648;23.406;2022-08-07T12:37:49;4.85;;;4.53;;
6348;SDS011;3207;42.648;23.406;2022-08-07T12:40:18;4.82;;;4.30;;
6348;SDS011;3207;42.648;23.406;2022-08-07T12:42:48;5.30;;;4.78;;
6348;SDS011;3207;42.648;23.406;2022-08-07T12:45:21;4.43;;;4.03;;
6348;SDS011;3207;42.648;23.406;2022-08-07T12:47:53;4.82;;;4.20;;
6348;SDS011;3207;42.648;23.406;2022-08-07T12:50:26;4.03;;;3.72;;
6348;SDS011;3207;42.648;23.406;2022-08-07T12:52:59;4.13;;;3.83;;
6348;SDS011;3207;42.648;23.406;2022-08-07T12:55:30;5.25;;;4.72;;
6348;SDS011;3207;42.648;23.406;2022-08-07T12:58:01;5.18;;;4.78;;
6348;SDS011;3207;42.648;23.406;2022-08-07T13:00:37;4.75;;;4.45;;
6348;SDS011;3207;42.648;23.406;2022-08-07T13:03:11;4.10;;;3.65;;
6348;SDS011;3207;42.648;23.406;2022-08-07T13:05:57;4.55;;;4.15;;
6348;SDS011;3207;42.648;23.406;2022-08-07T13:08:41;4.55;;;4.15;;
6348;SDS011;3207;42.648;23.406;2022-08-07T13:11:22;6.97;;;6.38;;
6348;SDS011;3207;42.648;23.406;2022-08-07T13:14:06;4.43;;;4.13;;
6348;SDS011;3207;42.648;23.406;2022-08-07T13:16:46;3.92;;;3.63;;
6348;SDS011;3207;42.648;23.406;2022-08-07T13:19:22;4.55;;;4.18;;
6348;SDS011;3207;42.648;23.406;2022-08-07T13:21:58;4.50;;;3.90;;
6348;SDS011;3207;42.648;23.406;2022-08-07T13:24:31;4.45;;;4.05;;
6348;SDS011;3207;42.648;23.406;2022-08-07T13:27:07;4.55;;;4.25;;
6348;SDS011;3207;42.648;23.406;2022-08-07T13:29:41;4.10;;;3.80;;
6348;SDS011;3207;42.648;23.406;2022-08-07T13:32:24;10.13;;;6.57;;
6348;SDS011;3207;42.648;23.406;2022-08-07T13:34:55;6.18;;;5.68;;
6348;SDS011;3207;42.648;23.406;2022-08-07T13:37:27;4.80;;;4.40;;
6348;SDS011;3207;42.648;23.406;2022-08-07T13:40:01;4.20;;;3.85;;
6348;SDS011;3207;42.648;23.406;2022-08-07T13:42:35;5.00;;;4.60;;
6348;SDS011;3207;42.648;23.406;2022-08-07T13:45:04;4.05;;;3.70;;
6348;SDS011;3207;42.648;23.406;2022-08-07T13:47:34;4.88;;;4.55;;
6348;SDS011;3207;42.648;23.406;2022-08-07T13:50:03;4.75;;;4.35;;
6348;SDS011;3207;42.648;23.406;2022-08-07T13:52:35;14.23;;;4.93;;
6348;SDS011;3207;42.648;23.406;2022-08-07T13:55:05;4.68;;;4.28;;
6348;SDS011;3207;42.648;23.406;2022-08-07T13:57:37;4.63;;;4.22;;
6348;SDS011;3207;42.648;23.406;2022-08-07T14:00:06;4.43;;;4.05;;
6348;SDS011;3207;42.648;23.406;2022-08-07T14:02:35;5.15;;;4.75;;
6348;SDS011;3207;42.648;23.406;2022-08-07T14:05:05;4.65;;;4.25;;
6348;SDS011;3207;42.648;23.406;2022-08-07T14:07:37;4.57;;;4.18;;
6348;SDS011;3207;42.648;23.406;2022-08-07T14:10:07;6.97;;;6.18;;
6348;SDS011;3207;42.648;23.406;2022-08-07T14:12:35;6.43;;;5.80;;
6348;SDS011;3207;42.648;23.406;2022-08-07T14:15:10;5.88;;;5.28;;
6348;SDS011;3207;42.648;23.406;2022-08-07T14:17:46;4.40;;;4.10;;
6348;SDS011;3207;42.648;23.406;2022-08-07T14:20:15;5.07;;;4.57;;
6348;SDS011;3207;42.648;23.406;2022-08-07T14:22:46;4.68;;;4.38;;
6348;SDS011;3207;42.648;23.406;2022-08-07T14:25:23;5.53;;;5.03;;
6348;SDS011;3207;42.648;23.406;2022-08-07T14:27:54;6.05;;;5.55;;
6348;SDS011;3207;42.648;23.406;2022-08-07T14:30:21;10.55;;;9.57;;
6348;SDS011;3207;42.648;23.406;2022-08-07T14:32:53;4.75;;;4.35;;
6348;SDS011;3207;42.648;23.406;2022-08-07T14:35:22;8.90;;;7.68;;
6348;SDS011;3207;42.648;23.406;2022-08-07T14:37:51;26.80;;;23.20;;
6348;SDS011;3207;42.648;23.406;2022-08-07T14:40:20;14.20;;;9.98;;
6348;SDS011;3207;42.648;23.406;2022-08-07T14:42:53;8.20;;;7.40;;
6348;SDS011;3207;42.648;23.406;2022-08-07T14:45:23;6.32;;;5.70;;
6348;SDS011;3207;42.648;23.406;2022-08-07T14:47:53;7.45;;;5.20;;
6348;SDS011;3207;42.648;23.406;2022-08-07T14:50:22;16.33;;;12.93;;
6348;SDS011;3207;42.648;23.406;2022-08-07T14:52:50;15.55;;;12.48;;
6348;SDS011;3207;42.648;23.406;2022-08-07T14:55:19;11.63;;;10.52;;
6348;SDS011;3207;42.648;23.406;2022-08-07T14:57:48;5.07;;;4.68;;
6348;SDS011;3207;42.648;23.406;2022-08-07T15:00:16;4.82;;;4.43;;
6348;SDS011;3207;42.648;23.406;2022-08-07T15:02:45;5.15;;;4.63;;
6348;SDS011;3207;42.648;23.406;2022-08-07T15:05:17;4.68;;;4.20;;
6348;SDS011;3207;42.648;23.406;2022-08-07T15:07:46;6.60;;;5.45;;
6348;SDS011;3207;42.648;23.406;2022-08-07T15:10:17;5.72;;;4.78;;
6348;SDS011;3207;42.648;23.406;2022-08-07T15:12:44;5.00;;;4.60;;
6348;SDS011;3207;42.648;23.406;2022-08-07T15:15:14;4.72;;;4.32;;
6348;SDS011;3207;42.648;23.406;2022-08-07T15:17:51;5.95;;;4.60;;
6348;SDS011;3207;42.648;23.406;2022-08-07T15:20:24;4.88;;;4.47;;
6348;SDS011;3207;42.648;23.406;2022-08-07T15:22:55;7.22;;;4.80;;
6348;SDS011;3207;42.648;23.406;2022-08-07T15:25:26;6.00;;;4.63;;
6348;SDS011;3207;42.648;23.406;2022-08-07T15:27:59;4.50;;;4.20;;
6348;SDS011;3207;42.648;23.406;2022-08-07T15:30:27;4.68;;;4.32;;
6348;SDS011;3207;42.648;23.406;2022-08-07T15:32:56;6.07;;;5.22;;